Wright Patterson Air Force Base
KFFO : now visible

Airfield :











YOU CAN JOIN US ON...

 
LOGIN :

Register | Disclaimer

   EN    FR    IT 

 









Legend :    VFR   Marginal VFR   IFR   Intensive IFR   Very Intensive IFR
Visi :
Ceiling :
>= 8 km
>= 3000ft
5 to 8 km
1000 to 3000 ft
1500m to 5 km
500 to 1000 ft
800 to 1500m
200 to 500 ft
< 800m
< 200 ft
Symbols :   Thunderstorms  Fog  Heavy snow  Heavy precipitations  Wind > 20 kt






- Airport Elevation : 823 ft


KFFO - Wright Patterson Air Force Base

CURRENT METAR :
  • 040855Z 23003KT 10SM SCT220 M07/M10 A3032 RMK AO2A SLP281 T10701102 57019

EXPIRED METARs :
  • 040755Z 26003KT 10SM SCT220 M06/M10 A3036 RMK AO2A SLP294 T10581099
  • 040655Z 29005KT 10SM SCT220 M04/M09 A3037 RMK AO2A SLP296 T10431095

TAF TAF KFFO
Valid from the 04 at 03:00 until the 05 at 09:00 UTC


040300Z 0403/0509 29009KT 9999 SCT250 QNH3030INS
BECMG 0412/0414 22009KT 9999 FEW250 QNH3006INS
BECMG 0508/0509 17009KT 9999 FEW150 BKN250 QNH3004INS TX05/0420Z TNM07/0412Z
KZID FIR / North America



MET'MAP, your aeronautical weather chart ! - Copyright ORBIFLY December 2007 - Disclaimer

ORBIFLY MET'MAP TEAM :

Programming & Development : Alexandra Zaïnal
Original concept : Baudouin d'Aumeries
Technical & hardware support : Manuel Goepfert
Assistance : Marc-Olivier Méhu




SOURCES & CREDITS :

   NOAA       Earth
Advisory